createdAt,value
2023-01-04T00:00:23.295Z,17.52
2023-01-04T00:02:26.736Z,21.20
2023-01-04T00:04:30.030Z,14.65
2023-01-04T00:06:33.442Z,16.27
2023-01-04T00:08:37.026Z,17.73
2023-01-04T00:10:40.398Z,20.15
2023-01-04T00:12:46.498Z,20.23
2023-01-04T00:14:49.670Z,16.85
2023-01-04T00:16:54.198Z,18.80
2023-01-04T00:18:58.058Z,17.73
2023-01-04T00:21:10.140Z,20.50
2023-01-04T00:23:13.434Z,13.50
2023-01-04T00:25:16.899Z,16.92
2023-01-04T00:27:20.236Z,20.27
2023-01-04T00:29:23.505Z,17.42
2023-01-04T00:31:27.566Z,14.38
2023-01-04T00:33:32.433Z,18.73
2023-01-04T00:35:45.876Z,23.10
2023-01-04T00:37:52.065Z,22.58
2023-01-04T00:39:55.573Z,34.65
2023-01-04T00:42:05.380Z,20.70
2023-01-04T00:44:09.575Z,21.75
2023-01-04T00:46:12.810Z,19.52
2023-01-04T00:48:16.036Z,17.83
2023-01-04T00:50:20.878Z,19.00
2023-01-04T00:52:24.075Z,13.68
2023-01-04T00:54:27.718Z,14.60
2023-01-04T00:56:31.438Z,12.63
2023-01-04T00:58:34.588Z,12.02
2023-01-04T01:00:38.126Z,14.52
2023-01-04T01:02:41.592Z,13.05
2023-01-04T01:04:45.107Z,18.17
2023-01-04T01:06:50.432Z,13.52
2023-01-04T01:08:54.275Z,20.58
2023-01-04T01:11:03.576Z,15.05
2023-01-04T01:13:06.770Z,13.73
2023-01-04T01:15:11.171Z,9.93
2023-01-04T01:17:14.453Z,13.20
2023-01-04T01:19:18.039Z,12.77
2023-01-04T01:21:23.092Z,13.75
2023-01-04T01:23:28.551Z,17.38
2023-01-04T01:25:34.995Z,11.82
2023-01-04T01:27:38.221Z,13.10
2023-01-04T01:29:41.477Z,9.63
2023-01-04T01:31:44.876Z,11.65
2023-01-04T01:33:50.540Z,10.45
2023-01-04T01:35:53.876Z,10.95
2023-01-04T01:37:57.142Z,11.65
2023-01-04T01:40:01.829Z,18.08
2023-01-04T01:42:05.302Z,13.48
2023-01-04T01:44:24.094Z,10.27
2023-01-04T01:46:30.398Z,9.50
2023-01-04T01:48:33.747Z,9.75
2023-01-04T01:50:39.877Z,10.65
2023-01-04T01:52:43.458Z,7.45
2023-01-04T01:54:50.637Z,8.68
2023-01-04T01:56:59.250Z,10.68
2023-01-04T01:59:02.904Z,10.82
2023-01-04T02:01:06.676Z,11.57
2023-01-04T02:03:17.415Z,9.52
2023-01-04T02:05:22.088Z,10.98
2023-01-04T02:07:29.377Z,11.45
2023-01-04T02:09:33.587Z,12.25
2023-01-04T02:11:36.777Z,11.77
2023-01-04T02:14:01.479Z,15.88
2023-01-04T02:16:15.794Z,10.35
2023-01-04T02:18:25.979Z,12.20
2023-01-04T02:20:44.711Z,12.00
2023-01-04T02:23:37.770Z,10.95
2023-01-04T02:26:20.586Z,9.10
2023-01-04T02:28:38.184Z,10.90
2023-01-04T02:31:05.440Z,11.90
2023-01-04T02:33:25.654Z,11.52
2023-01-04T02:35:33.528Z,12.60
2023-01-04T02:37:41.804Z,10.60
2023-01-04T02:39:53.485Z,14.60
2023-01-04T02:42:05.137Z,10.13
2023-01-04T02:44:33.359Z,9.82
2023-01-04T02:46:43.916Z,12.52
2023-01-04T02:49:04.977Z,8.35
2023-01-04T02:51:27.508Z,13.63
2023-01-04T02:53:35.707Z,11.98
2023-01-04T02:55:48.382Z,10.52
2023-01-04T02:57:59.588Z,7.95
2023-01-04T03:00:20.469Z,12.40
2023-01-04T03:03:09.246Z,11.15
2023-01-04T03:05:40.461Z,12.43
2023-01-04T03:07:53.410Z,9.70
2023-01-04T03:10:03.867Z,12.48
2023-01-04T03:12:29.531Z,13.10
2023-01-04T03:14:37.648Z,13.35
2023-01-04T03:16:46.147Z,10.90
2023-01-04T03:18:54.664Z,10.85
2023-01-04T03:21:00.470Z,9.98
2023-01-04T03:23:24.916Z,12.00
2023-01-04T03:25:51.849Z,9.98
2023-01-04T03:28:14.605Z,11.38
2023-01-04T03:30:38.455Z,10.65
2023-01-04T03:33:06.226Z,9.70
2023-01-04T03:35:28.232Z,9.32
2023-01-04T03:37:36.505Z,8.00
2023-01-04T03:40:10.217Z,11.20
2023-01-04T03:42:37.608Z,9.38
2023-01-04T03:45:09.938Z,9.05
2023-01-04T03:47:37.369Z,9.38
2023-01-04T03:49:44.843Z,13.18
2023-01-04T03:51:50.475Z,12.68
2023-01-04T03:53:58.473Z,13.07
2023-01-04T03:56:02.828Z,8.70
2023-01-04T03:58:06.103Z,9.80
2023-01-04T04:00:13.504Z,11.82
2023-01-04T04:02:23.762Z,9.93
2023-01-04T04:04:44.627Z,9.45
2023-01-04T04:07:06.625Z,10.15
2023-01-04T04:09:09.856Z,12.38
2023-01-04T04:11:31.433Z,10.48
2023-01-04T04:13:34.614Z,12.75
2023-01-04T04:15:37.951Z,10.88
2023-01-04T04:17:41.286Z,8.85
2023-01-04T04:19:44.720Z,12.45
2023-01-04T04:21:50.776Z,8.82
2023-01-04T04:23:56.127Z,7.65
2023-01-04T04:25:59.372Z,9.73
2023-01-04T04:28:02.698Z,16.13
2023-01-04T04:30:07.060Z,13.38
2023-01-04T04:32:10.431Z,10.85
2023-01-04T04:34:14.293Z,8.73
2023-01-04T04:36:17.938Z,9.70
2023-01-04T04:38:22.995Z,9.00
2023-01-04T04:40:48.745Z,8.25
2023-01-04T04:42:52.053Z,9.05
2023-01-04T04:44:55.322Z,10.38
2023-01-04T04:46:58.512Z,10.25
2023-01-04T04:49:01.917Z,8.50
2023-01-04T04:51:05.391Z,15.73
2023-01-04T04:53:08.605Z,9.45
2023-01-04T04:55:13.295Z,9.88
2023-01-04T04:57:16.569Z,8.90
2023-01-04T04:59:19.832Z,9.52
2023-01-04T05:01:23.271Z,12.98
2023-01-04T05:03:26.797Z,12.77
2023-01-04T05:05:30.645Z,8.90
2023-01-04T05:07:33.967Z,10.75
2023-01-04T05:09:37.227Z,13.10
2023-01-04T05:11:59.416Z,20.63
2023-01-04T05:14:02.804Z,11.75
2023-01-04T05:16:07.626Z,13.73
2023-01-04T05:18:12.314Z,9.90
2023-01-04T05:20:15.528Z,11.68
2023-01-04T05:22:18.730Z,11.30
2023-01-04T05:24:21.974Z,10.88
2023-01-04T05:26:25.208Z,16.25
2023-01-04T05:28:29.845Z,10.90
2023-01-04T05:30:50.968Z,8.68
2023-01-04T05:32:54.372Z,10.43
2023-01-04T05:34:57.693Z,11.27
2023-01-04T05:37:01.098Z,8.43
2023-01-04T05:39:04.325Z,8.07
2023-01-04T05:41:28.372Z,11.25
2023-01-04T05:43:33.044Z,18.50
2023-01-04T05:45:36.773Z,18.70
2023-01-04T05:47:40.231Z,17.48
2023-01-04T05:49:44.096Z,14.82
2023-01-04T05:51:47.436Z,16.67
2023-01-04T05:53:50.623Z,14.27
2023-01-04T05:55:53.948Z,12.70
2023-01-04T05:57:57.242Z,11.82
2023-01-04T06:00:03.674Z,16.27
2023-01-04T06:02:08.009Z,14.98
2023-01-04T06:04:11.432Z,12.68
2023-01-04T06:06:14.761Z,13.23
2023-01-04T06:08:18.053Z,14.55
2023-01-04T06:10:21.796Z,11.82
2023-01-04T06:12:25.775Z,16.20
2023-01-04T06:14:28.988Z,12.55
2023-01-04T06:16:33.865Z,15.57
2023-01-04T06:18:37.169Z,10.90
2023-01-04T06:20:40.353Z,12.77
2023-01-04T06:22:44.616Z,13.68
2023-01-04T06:24:47.956Z,12.20
2023-01-04T06:26:51.240Z,15.75
2023-01-04T06:28:55.375Z,13.48
2023-01-04T06:30:58.885Z,22.42
2023-01-04T06:33:03.528Z,10.75
2023-01-04T06:35:07.783Z,15.82
2023-01-04T06:37:11.199Z,17.70
2023-01-04T06:39:14.609Z,18.05
2023-01-04T06:41:18.265Z,14.18
2023-01-04T06:43:21.725Z,23.35
2023-01-04T06:45:25.361Z,20.80
2023-01-04T06:47:28.605Z,20.67
2023-01-04T06:49:33.315Z,17.98
2023-01-04T06:51:36.516Z,19.00
2023-01-04T06:53:39.829Z,17.98
2023-01-04T06:55:48.852Z,13.57
2023-01-04T06:57:57.653Z,18.13
2023-01-04T07:00:03.599Z,20.75
2023-01-04T07:02:07.133Z,10.70
2023-01-04T07:04:10.759Z,15.48
2023-01-04T07:06:15.589Z,11.85
2023-01-04T07:08:19.059Z,13.70
2023-01-04T07:10:22.411Z,13.63
2023-01-04T07:12:25.890Z,13.93
2023-01-04T07:14:29.131Z,12.10
2023-01-04T07:16:32.399Z,10.65
2023-01-04T07:18:35.679Z,13.32
2023-01-04T07:20:39.656Z,13.55
2023-01-04T07:22:44.425Z,14.88
2023-01-04T07:24:47.681Z,16.27
2023-01-04T07:26:50.921Z,15.75
2023-01-04T07:29:11.644Z,15.77
2023-01-04T07:31:14.973Z,17.88
2023-01-04T07:33:18.289Z,12.98
2023-01-04T07:35:21.996Z,13.63
2023-01-04T07:37:25.329Z,13.60
2023-01-04T07:39:29.893Z,19.60
2023-01-04T07:41:33.712Z,16.17
2023-01-04T07:43:36.968Z,16.40
2023-01-04T07:45:40.196Z,13.23
2023-01-04T07:47:43.524Z,13.25
2023-01-04T07:49:48.887Z,15.27
2023-01-04T07:51:59.052Z,19.90
2023-01-04T07:54:10.804Z,13.50
2023-01-04T07:56:26.346Z,15.38
2023-01-04T07:58:35.273Z,13.10
2023-01-04T08:00:39.065Z,10.47
2023-01-04T08:02:42.871Z,13.00
2023-01-04T08:04:46.753Z,10.60
2023-01-04T08:06:50.633Z,10.43
2023-01-04T08:08:54.314Z,10.30
2023-01-04T08:10:58.031Z,9.73
2023-01-04T08:13:05.416Z,9.80
2023-01-04T08:15:09.521Z,9.63
2023-01-04T08:17:14.043Z,10.10
2023-01-04T08:19:20.568Z,16.33
2023-01-04T08:21:25.141Z,14.00
2023-01-04T08:23:28.525Z,11.00
2023-01-04T08:25:31.960Z,15.87
2023-01-04T08:27:35.449Z,12.30
2023-01-04T08:29:40.260Z,14.53
2023-01-04T08:31:43.898Z,9.07
2023-01-04T08:33:47.877Z,10.40
2023-01-04T08:35:51.332Z,8.77
2023-01-04T08:37:54.738Z,11.40
2023-01-04T08:39:58.218Z,9.37
2023-01-04T08:42:14.573Z,8.20
2023-01-04T08:44:25.420Z,8.47
2023-01-04T08:46:30.379Z,11.43
2023-01-04T08:48:34.621Z,7.07
2023-01-04T08:50:38.055Z,7.57
2023-01-04T08:52:42.645Z,7.80
2023-01-04T08:54:45.995Z,9.27
2023-01-04T08:56:49.478Z,6.63
2023-01-04T08:58:52.868Z,6.20
2023-01-04T09:01:02.265Z,6.90
2023-01-04T09:03:08.073Z,6.90
2023-01-04T09:05:11.655Z,8.83
2023-01-04T09:07:26.449Z,7.43
2023-01-04T09:09:30.339Z,5.83
2023-01-04T09:11:35.359Z,7.67
2023-01-04T09:13:39.021Z,5.77
2023-01-04T09:15:42.327Z,6.03
2023-01-04T09:18:05.112Z,8.03
2023-01-04T09:20:10.939Z,6.43
2023-01-04T09:22:14.497Z,7.80
2023-01-04T09:24:17.773Z,7.03
2023-01-04T09:26:23.299Z,5.60
2023-01-04T09:28:26.539Z,6.97
2023-01-04T09:30:31.819Z,7.00
2023-01-04T09:32:35.313Z,6.60
2023-01-04T09:34:39.863Z,5.40
2023-01-04T09:36:44.792Z,6.40
2023-01-04T09:38:49.335Z,5.33
2023-01-04T09:41:01.265Z,7.70
2023-01-04T09:43:21.147Z,5.20
2023-01-04T09:45:27.952Z,5.20
2023-01-04T09:47:40.759Z,5.17
2023-01-04T09:49:48.528Z,5.27
2023-01-04T09:52:01.871Z,4.60
2023-01-04T09:54:09.808Z,6.10
2023-01-04T09:56:22.426Z,10.73
2023-01-04T09:58:29.875Z,11.33
2023-01-04T10:00:43.556Z,10.07
2023-01-04T10:02:51.403Z,13.43
2023-01-04T10:04:56.519Z,6.53
2023-01-04T10:07:05.146Z,6.43
2023-01-04T10:09:13.751Z,5.80
2023-01-04T10:11:41.639Z,6.20
2023-01-04T10:14:13.368Z,6.70
2023-01-04T10:16:44.323Z,7.63
2023-01-04T10:19:29.706Z,6.70
2023-01-04T10:21:38.486Z,11.77
2023-01-04T10:23:56.272Z,6.07
2023-01-04T10:26:06.991Z,6.77
2023-01-04T10:28:30.510Z,6.70
2023-01-04T10:30:46.292Z,12.70
2023-01-04T10:33:02.384Z,5.57
2023-01-04T10:35:19.535Z,5.70
2023-01-04T10:37:28.010Z,6.23
2023-01-04T10:39:36.170Z,6.30
2023-01-04T10:41:45.209Z,5.17
2023-01-04T10:44:11.126Z,5.93
2023-01-04T10:46:23.063Z,9.53
2023-01-04T10:48:34.330Z,7.00
2023-01-04T10:50:46.069Z,7.00
2023-01-04T10:52:54.036Z,7.67
2023-01-04T10:55:03.043Z,9.67
2023-01-04T10:57:11.412Z,9.30
2023-01-04T10:59:22.940Z,6.83
2023-01-04T11:01:32.991Z,8.30
2023-01-04T11:03:41.492Z,5.50
2023-01-04T11:05:49.137Z,6.13
2023-01-04T11:07:56.820Z,4.40
2023-01-04T11:10:07.951Z,6.80
2023-01-04T11:12:14.435Z,7.53
2023-01-04T11:14:18.151Z,4.47
2023-01-04T11:16:21.766Z,6.50
2023-01-04T11:18:25.537Z,5.67
2023-01-04T11:20:32.880Z,5.73
2023-01-04T11:22:42.169Z,7.97
2023-01-04T11:25:24.580Z,4.77
2023-01-04T11:27:20.929Z,6.30
2023-01-04T11:29:36.256Z,5.83
2023-01-04T11:31:49.252Z,5.93
2023-01-04T11:33:54.817Z,6.70
2023-01-04T11:36:01.486Z,6.30
2023-01-04T11:38:12.703Z,4.77
2023-01-04T11:40:25.273Z,4.90
2023-01-04T11:42:31.752Z,5.97
2023-01-04T11:44:36.483Z,6.13
2023-01-04T11:46:39.727Z,5.80
2023-01-04T11:48:44.917Z,7.20
2023-01-04T11:50:51.250Z,4.97
2023-01-04T11:52:54.543Z,7.93
2023-01-04T11:54:57.754Z,5.30
2023-01-04T11:59:32.861Z,5.60
2023-01-04T12:01:37.521Z,6.87
2023-01-04T12:03:41.197Z,6.20
2023-01-04T12:05:44.884Z,5.80
2023-01-04T12:07:48.676Z,5.50
2023-01-04T12:09:51.983Z,9.63
2023-01-04T12:11:57.766Z,7.50
2023-01-04T12:14:01.521Z,7.83
2023-01-04T12:16:15.294Z,10.03
2023-01-04T12:18:26.170Z,9.70
2023-01-04T12:20:31.311Z,9.03
2023-01-04T12:22:38.035Z,5.40
2023-01-04T12:24:42.133Z,9.97
2023-01-04T12:26:46.284Z,11.60
2023-01-04T12:28:53.835Z,12.30
2023-01-04T12:30:57.638Z,10.83
2023-01-04T12:33:40.649Z,10.17
2023-01-04T12:36:06.408Z,14.60
2023-01-04T12:38:11.079Z,13.83
2023-01-04T12:40:47.970Z,12.70
2023-01-04T12:43:19.324Z,9.80
2023-01-04T12:45:24.067Z,9.60
2023-01-04T12:48:14.539Z,12.43
2023-01-04T12:50:23.288Z,11.33
2023-01-04T12:55:28.156Z,11.60
2023-01-04T12:57:37.522Z,12.40
2023-01-04T12:59:55.821Z,10.13
2023-01-04T13:02:21.618Z,9.97
2023-01-04T13:04:31.273Z,9.70
2023-01-04T13:06:46.302Z,10.13
2023-01-04T13:08:52.791Z,8.70
2023-01-04T13:10:57.431Z,9.73
2023-01-04T13:13:19.937Z,8.37
2023-01-04T13:15:32.753Z,9.03
2023-01-04T13:17:41.094Z,9.77
2023-01-04T13:19:45.251Z,9.37
2023-01-04T13:21:52.481Z,8.90
2023-01-04T13:23:59.466Z,8.97
2023-01-04T13:26:28.202Z,9.40
2023-01-04T13:28:31.536Z,9.10
2023-01-04T13:30:37.909Z,10.60
2023-01-04T13:33:15.115Z,11.43
2023-01-04T13:35:14.397Z,8.33
2023-01-04T13:37:29.425Z,8.40
2023-01-04T13:39:32.993Z,7.73
2023-01-04T13:41:36.365Z,9.13
2023-01-04T13:43:54.371Z,7.90
2023-01-04T13:46:10.056Z,7.47
2023-01-04T13:48:16.972Z,8.00
2023-01-04T13:50:30.609Z,11.30
2023-01-04T13:52:55.223Z,7.47
2023-01-04T13:55:19.839Z,8.37
2023-01-04T13:57:24.534Z,9.40
2023-01-04T13:59:28.412Z,6.93
2023-01-04T14:01:33.613Z,7.90
2023-01-04T14:03:41.266Z,7.47
2023-01-04T14:05:50.238Z,12.10
2023-01-04T14:07:54.984Z,7.50
2023-01-04T14:10:01.319Z,9.30
2023-01-04T14:12:15.186Z,8.00
2023-01-04T14:14:31.301Z,8.03
2023-01-04T14:16:34.750Z,12.13
2023-01-04T14:18:37.955Z,13.40
2023-01-04T14:20:41.127Z,9.10
2023-01-04T14:22:53.161Z,8.07
2023-01-04T14:25:14.499Z,10.70
2023-01-04T14:27:34.349Z,8.77
2023-01-04T14:29:41.868Z,9.30
2023-01-04T14:31:45.517Z,11.40
2023-01-04T14:33:51.189Z,8.47
2023-01-04T14:36:04.319Z,8.43
2023-01-04T14:38:14.028Z,8.93
2023-01-04T14:40:26.918Z,7.00
2023-01-04T14:42:32.787Z,7.00
2023-01-04T14:44:41.103Z,8.83
2023-01-04T14:46:47.468Z,15.57
2023-01-04T14:48:50.880Z,7.20
2023-01-04T14:50:54.145Z,10.00
2023-01-04T14:52:57.409Z,9.30
2023-01-04T14:55:04.726Z,10.67
2023-01-04T14:57:11.818Z,8.53
2023-01-04T14:59:15.166Z,9.57
2023-01-04T15:01:18.570Z,17.20
2023-01-04T15:03:22.094Z,24.20
2023-01-04T15:05:25.562Z,28.40
2023-01-04T15:07:40.387Z,21.50
2023-01-04T15:09:43.630Z,21.50
2023-01-04T15:11:47.005Z,21.33
2023-01-04T15:13:51.686Z,16.00
2023-01-04T15:15:54.909Z,16.27
2023-01-04T15:17:58.190Z,13.00
2023-01-04T15:20:01.372Z,13.13
2023-01-04T15:22:04.641Z,12.43
2023-01-04T15:24:08.706Z,14.57
2023-01-04T15:26:12.780Z,13.77
2023-01-04T15:28:16.671Z,14.07
2023-01-04T15:30:21.681Z,17.50
2023-01-04T15:32:24.925Z,13.70
2023-01-04T15:34:28.246Z,18.40
2023-01-04T15:36:31.470Z,16.20
2023-01-04T15:38:35.397Z,9.97
2023-01-04T15:40:39.042Z,10.40
2023-01-04T15:42:59.420Z,14.30
2023-01-04T15:45:02.862Z,16.30
2023-01-04T15:47:07.673Z,15.75
2023-01-04T15:49:16.867Z,17.00
2023-01-04T15:51:20.928Z,11.65
2023-01-04T15:53:24.242Z,13.70
2023-01-04T15:55:32.465Z,12.82
2023-01-04T15:57:43.700Z,10.65
2023-01-04T15:59:48.935Z,12.15
2023-01-04T16:01:52.407Z,9.55
2023-01-04T16:03:57.345Z,11.55
2023-01-04T16:06:06.573Z,12.48
2023-01-04T16:08:09.816Z,9.50
2023-01-04T16:10:13.411Z,9.07
2023-01-04T16:12:33.943Z,10.05
2023-01-04T16:14:37.249Z,11.63
2023-01-04T16:16:40.510Z,8.93
2023-01-04T16:18:46.901Z,10.02
2023-01-04T16:20:51.723Z,8.75
2023-01-04T16:22:54.948Z,8.45
2023-01-04T16:25:13.486Z,9.82
2023-01-04T16:27:20.069Z,9.55
2023-01-04T16:29:24.555Z,8.63
2023-01-04T16:31:27.918Z,9.68
2023-01-04T16:33:31.546Z,10.25
2023-01-04T16:35:34.816Z,10.60
2023-01-04T16:37:39.866Z,10.88
2023-01-04T16:40:05.709Z,8.63
2023-01-04T16:42:10.750Z,10.45
2023-01-04T16:44:14.698Z,9.75
2023-01-04T16:46:28.006Z,10.45
2023-01-04T16:48:31.366Z,7.93
2023-01-04T16:50:34.666Z,13.25
2023-01-04T16:52:39.495Z,19.27
2023-01-04T16:54:42.826Z,46.67
2023-01-04T16:56:49.292Z,24.95
2023-01-04T16:58:53.053Z,12.70
2023-01-04T17:00:56.310Z,14.38
2023-01-04T17:02:59.597Z,22.75
2023-01-04T17:05:02.805Z,28.15
2023-01-04T17:07:06.616Z,34.30
2023-01-04T17:09:14.915Z,31.45
2023-01-04T17:13:43.784Z,20.33
2023-01-04T17:15:47.210Z,34.33
2023-01-04T17:17:50.584Z,36.63
2023-01-04T17:19:54.719Z,34.22
2023-01-04T17:21:58.107Z,38.65
2023-01-04T17:24:01.408Z,32.05
2023-01-04T17:26:08.073Z,30.02
2023-01-04T17:28:11.310Z,23.92
2023-01-04T17:30:15.000Z,29.95
2023-01-04T17:32:18.650Z,42.95
2023-01-04T17:34:23.266Z,39.28
2023-01-04T17:36:26.993Z,48.53
2023-01-04T17:38:30.261Z,40.60
2023-01-04T17:40:33.727Z,27.40
2023-01-04T17:42:38.410Z,20.25
2023-01-04T17:44:41.665Z,30.77
2023-01-04T17:46:44.887Z,39.10
2023-01-04T17:48:50.042Z,39.88
2023-01-04T17:50:55.795Z,42.97
2023-01-04T17:52:59.798Z,35.90
2023-01-04T17:55:03.034Z,42.00
2023-01-04T17:57:06.389Z,32.70
2023-01-04T17:59:12.091Z,41.65
2023-01-04T18:01:17.237Z,40.67
2023-01-04T18:03:20.480Z,41.83
2023-01-04T18:05:23.718Z,45.60
2023-01-04T18:07:28.145Z,42.47
2023-01-04T18:09:31.455Z,46.15
2023-01-04T18:11:35.087Z,47.00
2023-01-04T18:16:10.575Z,31.02
2023-01-04T18:18:13.337Z,36.78
2023-01-04T18:20:24.591Z,35.70
2023-01-04T18:22:28.473Z,46.28
2023-01-04T18:24:36.646Z,37.95
2023-01-04T18:27:10.790Z,21.65
2023-01-04T18:29:04.539Z,20.55
2023-01-04T18:31:24.118Z,27.48
2023-01-04T18:33:27.546Z,23.50
2023-01-04T18:35:31.231Z,16.25
2023-01-04T18:37:35.489Z,27.17
2023-01-04T18:39:38.689Z,28.15
2023-01-04T18:41:42.310Z,26.95
2023-01-04T18:44:05.722Z,18.38
2023-01-04T18:46:13.792Z,12.80
2023-01-04T18:48:17.153Z,14.73
2023-01-04T18:50:20.436Z,10.70
2023-01-04T18:52:23.740Z,11.20
2023-01-04T18:54:26.986Z,11.38
2023-01-04T18:56:30.388Z,11.45
2023-01-04T18:58:34.179Z,15.15
2023-01-04T19:00:37.408Z,13.88
2023-01-04T19:02:42.706Z,16.58
2023-01-04T19:04:46.360Z,13.60
2023-01-04T19:06:49.673Z,17.00
2023-01-04T19:08:57.188Z,14.43
2023-01-04T19:11:01.478Z,13.85
2023-01-04T19:13:04.824Z,14.93
2023-01-04T19:15:10.061Z,20.45
2023-01-04T19:17:13.311Z,17.75
2023-01-04T19:19:18.053Z,20.92
2023-01-04T19:21:21.344Z,14.82
2023-01-04T19:23:24.926Z,21.73
2023-01-04T19:25:28.758Z,12.73
2023-01-04T19:27:32.270Z,8.55
2023-01-04T19:29:38.528Z,10.40
2023-01-04T19:31:41.720Z,13.55
2023-01-04T19:33:45.222Z,11.43
2023-01-04T19:35:49.861Z,12.38
2023-01-04T19:37:53.381Z,9.82
2023-01-04T19:39:56.873Z,14.50
2023-01-04T19:42:00.202Z,8.60
2023-01-04T19:44:04.369Z,8.77
2023-01-04T19:46:10.231Z,14.85
2023-01-04T19:48:13.653Z,8.70
2023-01-04T19:50:16.905Z,10.00
2023-01-04T19:52:21.571Z,9.32
2023-01-04T19:54:25.876Z,8.80
2023-01-04T19:56:29.329Z,12.38
2023-01-04T19:58:32.795Z,14.82
2023-01-04T20:00:36.134Z,11.10
2023-01-04T20:02:39.608Z,10.18
2023-01-04T20:04:42.971Z,11.73
2023-01-04T20:06:46.340Z,10.80
2023-01-04T20:08:50.888Z,10.02
2023-01-04T20:10:55.271Z,10.23
2023-01-04T20:12:58.586Z,10.18
2023-01-04T20:15:01.861Z,13.67
2023-01-04T20:17:05.190Z,9.32
2023-01-04T20:19:08.448Z,22.77
2023-01-04T20:21:13.723Z,8.68
2023-01-04T20:23:18.232Z,10.43
2023-01-04T20:25:23.070Z,10.80
2023-01-04T20:27:26.388Z,15.57
2023-01-04T20:29:30.054Z,8.40
2023-01-04T20:31:34.521Z,8.68
2023-01-04T20:33:38.123Z,11.88
2023-01-04T20:35:43.549Z,12.13
2023-01-04T20:37:48.701Z,13.77
2023-01-04T20:39:51.958Z,10.57
2023-01-04T20:42:22.617Z,12.07
2023-01-04T20:44:25.986Z,13.35
2023-01-04T20:46:32.732Z,10.30
2023-01-04T20:48:36.334Z,10.70
2023-01-04T20:50:40.241Z,10.75
2023-01-04T20:52:43.823Z,9.25
2023-01-04T20:54:49.889Z,12.27
2023-01-04T20:56:53.168Z,10.43
2023-01-04T20:58:57.886Z,11.02
2023-01-04T21:01:04.278Z,10.40
2023-01-04T21:03:09.194Z,14.30
2023-01-04T21:05:13.187Z,11.90
2023-01-04T21:07:16.527Z,12.40
2023-01-04T21:09:19.833Z,11.77
2023-01-04T21:11:23.154Z,11.73
2023-01-04T21:13:27.714Z,10.95
2023-01-04T21:15:35.824Z,10.55
2023-01-04T21:17:39.191Z,11.23
2023-01-04T21:19:42.460Z,12.25
2023-01-04T21:21:45.860Z,11.10
2023-01-04T21:23:54.678Z,11.10
2023-01-04T21:26:06.138Z,12.93
2023-01-04T21:28:10.268Z,9.60
2023-01-04T21:30:14.842Z,7.82
2023-01-04T21:32:19.512Z,13.13
2023-01-04T21:34:23.192Z,17.40
2023-01-04T21:36:28.241Z,12.57
2023-01-04T21:38:31.483Z,14.77
2023-01-04T21:40:35.456Z,12.18
2023-01-04T21:42:38.671Z,13.27
2023-01-04T21:44:41.884Z,9.10
2023-01-04T21:46:45.486Z,12.07
2023-01-04T21:48:53.947Z,11.10
2023-01-04T21:51:00.291Z,13.55
2023-01-04T21:53:03.582Z,10.95
2023-01-04T21:55:08.174Z,10.52
2023-01-04T21:57:11.539Z,11.02
2023-01-04T21:59:14.983Z,9.30
2023-01-04T22:01:22.880Z,9.88
2023-01-04T22:03:26.389Z,12.30
2023-01-04T22:05:32.397Z,13.32
2023-01-04T22:07:35.854Z,14.40
2023-01-04T22:09:39.315Z,15.20
2023-01-04T22:11:43.428Z,15.50
2023-01-04T22:13:46.899Z,26.70
2023-01-04T22:15:50.271Z,18.52
2023-01-04T22:17:53.554Z,39.03
2023-01-04T22:19:56.853Z,16.45
2023-01-04T22:22:01.588Z,20.13
2023-01-04T22:24:05.793Z,19.55
2023-01-04T22:26:09.286Z,26.50
2023-01-04T22:28:15.556Z,28.60
2023-01-04T22:30:18.757Z,26.65
2023-01-04T22:32:21.952Z,21.50
2023-01-04T22:34:26.009Z,26.45
2023-01-04T22:36:29.428Z,30.13
2023-01-04T22:38:35.608Z,37.58
2023-01-04T22:40:40.862Z,29.70
2023-01-04T22:42:44.409Z,31.23
2023-01-04T22:44:48.418Z,43.35
2023-01-04T22:46:51.764Z,31.83
2023-01-04T22:48:55.311Z,28.42
2023-01-04T22:50:58.794Z,38.03
2023-01-04T22:53:02.025Z,32.47
2023-01-04T22:55:07.663Z,35.83
2023-01-04T22:57:11.024Z,45.78
2023-01-04T22:59:14.280Z,65.13
2023-01-04T23:01:17.538Z,53.30
2023-01-04T23:03:20.929Z,30.08
2023-01-04T23:05:24.319Z,37.83
2023-01-04T23:07:27.568Z,32.40
2023-01-04T23:09:30.755Z,18.95
2023-01-04T23:11:37.324Z,26.40
2023-01-04T23:13:40.741Z,35.45
2023-01-04T23:15:44.056Z,42.88
2023-01-04T23:17:47.290Z,55.95
2023-01-04T23:19:50.588Z,45.85
2023-01-04T23:21:53.794Z,40.88
2023-01-04T23:23:57.157Z,57.10
2023-01-04T23:26:05.714Z,39.60
2023-01-04T23:28:10.476Z,40.38
2023-01-04T23:30:14.821Z,38.95
2023-01-04T23:32:18.007Z,34.20
2023-01-04T23:34:21.191Z,27.55
2023-01-04T23:36:26.993Z,36.35
2023-01-04T23:38:30.193Z,41.63
2023-01-04T23:40:33.517Z,28.02
2023-01-04T23:42:39.611Z,29.70
2023-01-04T23:44:44.395Z,14.27
2023-01-04T23:46:51.327Z,17.45
2023-01-04T23:48:54.499Z,6.70
2023-01-04T23:50:57.818Z,12.55
2023-01-04T23:53:00.988Z,10.45
2023-01-04T23:55:05.662Z,9.98
2023-01-04T23:57:08.900Z,10.82
2023-01-04T23:59:12.839Z,9.88
